createdAt,value
2018-07-05T00:00:47.177Z,13.10
2018-07-05T00:03:21.384Z,9.87
2018-07-05T00:05:55.580Z,9.47
2018-07-05T00:08:31.711Z,10.47
2018-07-05T00:11:05.694Z,10.20
2018-07-05T00:13:39.783Z,8.93
2018-07-05T00:16:14.585Z,8.60
2018-07-05T00:18:49.422Z,8.97
2018-07-05T00:21:24.096Z,6.73
2018-07-05T00:23:59.406Z,5.80
2018-07-05T00:26:34.223Z,6.07
2018-07-05T00:29:08.229Z,7.37
2018-07-05T00:31:43.245Z,5.60
2018-07-05T00:34:18.064Z,8.20
2018-07-05T00:36:52.250Z,5.53
2018-07-05T00:39:26.677Z,8.73
2018-07-05T00:42:01.253Z,8.57
2018-07-05T00:44:35.743Z,5.67
2018-07-05T00:47:10.055Z,7.93
2018-07-05T00:49:44.066Z,13.17
2018-07-05T00:52:18.279Z,9.43
2018-07-05T00:54:52.425Z,8.17
2018-07-05T00:57:26.653Z,9.83
2018-07-05T01:00:00.815Z,13.40
2018-07-05T01:02:35.040Z,11.83
2018-07-05T01:05:09.189Z,11.03
2018-07-05T01:07:43.343Z,10.03
2018-07-05T01:10:17.357Z,12.77
2018-07-05T01:12:51.772Z,11.03
2018-07-05T01:15:26.253Z,8.13
2018-07-05T01:18:00.748Z,11.23
2018-07-05T01:20:35.029Z,9.20
2018-07-05T01:23:09.233Z,10.37
2018-07-05T01:25:43.268Z,8.33
2018-07-05T01:28:17.337Z,10.93
2018-07-05T01:30:51.642Z,9.63
2018-07-05T01:33:25.506Z,9.67
2018-07-05T01:35:59.591Z,12.03
2018-07-05T01:38:33.673Z,11.70
2018-07-05T01:41:07.845Z,9.63
2018-07-05T01:43:41.960Z,8.47
2018-07-05T01:46:15.944Z,9.83
2018-07-05T01:48:49.996Z,14.53
2018-07-05T01:51:23.978Z,13.40
2018-07-05T01:53:57.927Z,10.47
2018-07-05T01:56:31.896Z,9.23
2018-07-05T01:59:06.354Z,11.30
2018-07-05T02:01:40.858Z,9.13
2018-07-05T02:04:15.098Z,11.60
2018-07-05T02:06:49.147Z,11.97
2018-07-05T02:09:23.345Z,13.23
2018-07-05T02:11:57.538Z,10.17
2018-07-05T02:14:31.757Z,11.73
2018-07-05T02:17:06.111Z,11.37
2018-07-05T02:19:40.144Z,9.93
2018-07-05T02:22:14.327Z,10.13
2018-07-05T02:24:48.488Z,11.73
2018-07-05T02:27:22.579Z,15.10
2018-07-05T02:29:56.603Z,10.50
2018-07-05T02:32:30.620Z,12.73
2018-07-05T02:35:04.632Z,10.63
2018-07-05T02:37:44.038Z,15.07
2018-07-05T02:40:18.047Z,15.70
2018-07-05T02:42:52.088Z,14.30
2018-07-05T02:45:26.143Z,14.03
2018-07-05T02:48:00.258Z,11.87
2018-07-05T02:50:34.552Z,11.37
2018-07-05T02:53:09.031Z,12.23
2018-07-05T02:55:43.202Z,14.93
2018-07-05T02:58:17.180Z,12.53
2018-07-05T03:00:51.087Z,9.83
2018-07-05T03:03:27.195Z,11.80
2018-07-05T03:06:01.187Z,11.50
2018-07-05T03:08:35.188Z,11.03
2018-07-05T03:11:09.233Z,12.97
2018-07-05T03:13:43.341Z,15.50
2018-07-05T03:16:17.369Z,17.83
2018-07-05T03:18:51.400Z,12.10
2018-07-05T03:21:25.539Z,11.97
2018-07-05T03:23:59.632Z,11.37
2018-07-05T03:26:33.958Z,11.03
2018-07-05T03:29:08.051Z,11.07
2018-07-05T03:31:42.043Z,8.90
2018-07-05T03:34:15.983Z,10.83
2018-07-05T03:36:49.987Z,8.80
2018-07-05T03:39:23.912Z,8.17
2018-07-05T03:41:57.896Z,13.63
2018-07-05T03:44:31.945Z,9.93
2018-07-05T03:47:05.938Z,8.63
2018-07-05T03:49:39.903Z,16.43
2018-07-05T03:52:13.894Z,8.93
2018-07-05T03:54:47.878Z,10.27
2018-07-05T03:57:21.917Z,12.00
2018-07-05T03:59:55.966Z,13.47
2018-07-05T04:02:29.965Z,8.30
2018-07-05T04:05:03.866Z,10.70
2018-07-05T04:07:37.943Z,11.90
2018-07-05T04:10:11.948Z,10.03
2018-07-05T04:12:45.886Z,11.23
2018-07-05T04:15:19.900Z,10.63
2018-07-05T04:17:53.956Z,10.10
2018-07-05T04:20:28.116Z,9.63
2018-07-05T04:23:02.134Z,11.53
2018-07-05T04:25:36.161Z,12.43
2018-07-05T04:28:10.193Z,10.37
2018-07-05T04:30:44.369Z,10.00
2018-07-05T04:33:18.323Z,10.00
2018-07-05T04:35:52.491Z,10.27
2018-07-05T04:38:26.961Z,9.37
2018-07-05T04:41:01.533Z,11.43
2018-07-05T04:43:35.693Z,9.00
2018-07-05T04:46:09.688Z,12.03
2018-07-05T04:48:43.699Z,10.47
2018-07-05T04:51:17.705Z,11.57
2018-07-05T04:53:51.813Z,13.57
2018-07-05T04:56:25.804Z,11.37
2018-07-05T04:58:59.811Z,11.17
2018-07-05T05:01:33.820Z,10.17
2018-07-05T05:04:07.859Z,14.27
2018-07-05T05:06:41.968Z,13.67
2018-07-05T05:09:16.084Z,10.43
2018-07-05T05:11:50.419Z,9.67
2018-07-05T05:14:24.620Z,7.43
2018-07-05T05:16:59.274Z,9.47
2018-07-05T05:19:33.373Z,6.10
2018-07-05T05:22:07.664Z,8.70
2018-07-05T05:24:41.905Z,6.60
2018-07-05T05:27:15.824Z,5.67
2018-07-05T05:29:49.795Z,8.70
2018-07-05T05:32:23.975Z,7.33
2018-07-05T05:34:58.127Z,9.67
2018-07-05T05:37:32.221Z,13.03
2018-07-05T05:40:06.453Z,11.97
2018-07-05T05:42:40.516Z,13.00
2018-07-05T05:45:14.676Z,15.27
2018-07-05T05:47:48.802Z,14.60
2018-07-05T05:50:23.019Z,14.83
2018-07-05T05:52:57.923Z,10.03
2018-07-05T05:55:31.972Z,10.67
2018-07-05T05:58:05.970Z,9.80
2018-07-05T06:00:39.949Z,12.30
2018-07-05T06:03:14.037Z,11.37
2018-07-05T06:05:48.102Z,12.67
2018-07-05T06:08:22.427Z,11.87
2018-07-05T06:10:56.384Z,11.23
2018-07-05T06:13:30.338Z,12.17
2018-07-05T06:16:04.364Z,19.83
2018-07-05T06:18:38.418Z,14.80
2018-07-05T06:21:12.567Z,13.60
2018-07-05T06:23:46.967Z,11.73
2018-07-05T06:26:21.126Z,16.23
2018-07-05T06:28:55.100Z,18.80
2018-07-05T06:31:29.016Z,16.40
2018-07-05T06:34:03.136Z,16.97
2018-07-05T06:36:37.223Z,12.97
2018-07-05T06:39:11.329Z,17.00
2018-07-05T06:41:45.891Z,14.73
2018-07-05T06:44:20.335Z,11.73
2018-07-05T06:46:54.569Z,11.33
2018-07-05T06:49:28.621Z,13.00
2018-07-05T06:52:02.638Z,10.40
2018-07-05T06:54:36.681Z,11.07
2018-07-05T06:57:10.711Z,12.67
2018-07-05T06:59:44.865Z,14.60
2018-07-05T07:02:19.024Z,11.63
2018-07-05T07:04:53.025Z,12.87
2018-07-05T07:07:26.931Z,13.63
2018-07-05T07:10:00.919Z,12.40
2018-07-05T07:12:35.020Z,10.73
2018-07-05T07:15:09.273Z,11.20
2018-07-05T07:17:43.223Z,10.83
2018-07-05T07:20:17.409Z,14.57
2018-07-05T07:22:51.664Z,14.77
2018-07-05T07:25:25.657Z,12.40
2018-07-05T07:27:59.917Z,13.93
2018-07-05T07:30:34.051Z,8.67
2018-07-05T07:33:08.321Z,9.67
2018-07-05T07:35:42.436Z,9.93
2018-07-05T07:38:16.424Z,9.00
2018-07-05T07:40:50.413Z,7.67
2018-07-05T07:43:18.416Z,9.97
2018-07-05T07:45:46.476Z,9.17
2018-07-05T07:48:14.460Z,9.33
2018-07-05T07:50:42.519Z,8.50
2018-07-05T07:53:10.631Z,7.77
2018-07-05T07:55:38.867Z,10.77
2018-07-05T07:58:06.845Z,11.07
2018-07-05T08:00:35.114Z,11.43
2018-07-05T08:03:03.252Z,15.07
2018-07-05T08:05:31.307Z,12.10
2018-07-05T08:07:59.443Z,13.65
2018-07-05T08:10:27.574Z,8.93
2018-07-05T08:12:55.580Z,8.70
2018-07-05T08:15:23.613Z,10.50
2018-07-05T08:17:51.631Z,11.73
2018-07-05T08:20:19.599Z,10.47
2018-07-05T08:22:47.567Z,13.47
2018-07-05T08:25:15.501Z,7.13
2018-07-05T08:27:43.449Z,12.67
2018-07-05T08:30:11.464Z,9.67
2018-07-05T08:32:39.420Z,12.40
2018-07-05T08:35:07.357Z,14.83
2018-07-05T08:37:35.305Z,11.47
2018-07-05T08:40:03.245Z,10.53
2018-07-05T08:42:31.184Z,7.83
2018-07-05T08:44:59.150Z,9.20
2018-07-05T08:47:28.027Z,11.53
2018-07-05T08:49:55.967Z,7.67
2018-07-05T08:52:23.949Z,9.23
2018-07-05T08:54:51.942Z,6.53
2018-07-05T08:57:19.892Z,7.27
2018-07-05T08:59:47.877Z,7.87
2018-07-05T09:02:15.861Z,13.47
2018-07-05T09:04:43.821Z,9.20
2018-07-05T09:07:11.796Z,17.00
2018-07-05T09:09:39.755Z,7.70
2018-07-05T09:12:07.696Z,8.83
2018-07-05T09:14:35.638Z,8.63
2018-07-05T09:17:03.770Z,8.57
2018-07-05T09:19:31.761Z,6.23
2018-07-05T09:21:59.791Z,17.37
2018-07-05T09:24:27.733Z,9.77
2018-07-05T09:26:55.667Z,6.40
2018-07-05T09:29:23.775Z,9.83
2018-07-05T09:31:51.849Z,6.77
2018-07-05T09:34:19.797Z,6.43
2018-07-05T09:36:47.845Z,10.07
2018-07-05T09:39:15.789Z,8.07
2018-07-05T09:41:43.715Z,10.17
2018-07-05T09:44:11.753Z,9.10
2018-07-05T09:46:39.696Z,6.77
2018-07-05T09:49:07.870Z,6.13
2018-07-05T09:51:35.823Z,8.63
2018-07-05T09:54:03.764Z,7.57
2018-07-05T09:56:31.774Z,9.50
2018-07-05T09:58:59.827Z,7.17
2018-07-05T10:01:28.007Z,7.57
2018-07-05T10:03:55.932Z,7.83
2018-07-05T10:06:23.905Z,11.33
2018-07-05T10:08:51.911Z,6.70
2018-07-05T10:11:19.997Z,7.47
2018-07-05T10:13:48.353Z,7.23
2018-07-05T10:16:15.903Z,6.67
2018-07-05T10:18:43.993Z,9.93
2018-07-05T10:21:11.960Z,7.10
2018-07-05T10:23:40.021Z,12.03
2018-07-05T10:26:07.997Z,9.00
2018-07-05T10:28:42.448Z,6.33
2018-07-05T10:31:16.500Z,9.67
2018-07-05T10:33:49.632Z,6.60
2018-07-05T10:36:17.615Z,10.30
2018-07-05T10:38:45.556Z,9.23
2018-07-05T10:41:19.663Z,13.87
2018-07-05T10:43:53.793Z,16.60
2018-07-05T10:46:27.872Z,13.07
2018-07-05T10:49:01.968Z,11.53
2018-07-05T10:51:36.130Z,9.83
2018-07-05T10:54:10.338Z,28.23
2018-07-05T10:56:44.556Z,69.93
2018-07-05T10:59:18.761Z,29.97
2018-07-05T11:01:52.753Z,25.43
2018-07-05T11:04:26.782Z,16.20
2018-07-05T11:07:00.820Z,12.67
2018-07-05T11:09:34.933Z,12.17
2018-07-05T11:12:09.107Z,9.90
2018-07-05T11:14:43.238Z,22.77
2018-07-05T11:17:17.371Z,33.60
2018-07-05T11:19:51.595Z,36.67
2018-07-05T11:22:25.723Z,15.90
2018-07-05T11:24:59.810Z,10.63
2018-07-05T11:27:33.716Z,11.33
2018-07-05T11:30:08.090Z,11.47
2018-07-05T11:32:42.423Z,10.17
2018-07-05T11:35:16.504Z,10.73
2018-07-05T11:37:50.594Z,7.97
2018-07-05T11:40:24.713Z,6.93
2018-07-05T11:42:59.168Z,8.63
2018-07-05T11:45:33.427Z,6.67
2018-07-05T11:48:07.976Z,8.03
2018-07-05T11:50:42.345Z,11.73
2018-07-05T11:53:16.379Z,5.37
2018-07-05T11:55:50.749Z,7.93
2018-07-05T11:58:24.996Z,5.37
2018-07-05T12:00:59.336Z,6.70
2018-07-05T12:03:33.352Z,6.57
2018-07-05T12:06:07.355Z,5.83
2018-07-05T12:08:41.421Z,8.30
2018-07-05T12:11:15.556Z,7.83
2018-07-05T12:13:49.743Z,6.33
2018-07-05T12:16:24.052Z,10.43
2018-07-05T12:18:58.206Z,10.67
2018-07-05T12:21:32.183Z,7.07
2018-07-05T12:24:06.094Z,8.03
2018-07-05T12:26:40.152Z,7.07
2018-07-05T12:29:14.249Z,6.93
2018-07-05T12:31:48.332Z,8.97
2018-07-05T12:34:22.485Z,8.70
2018-07-05T12:36:56.684Z,6.50
2018-07-05T12:39:30.759Z,6.50
2018-07-05T12:42:05.072Z,7.83
2018-07-05T12:44:39.063Z,45.60
2018-07-05T12:47:13.039Z,37.77
2018-07-05T12:49:47.004Z,20.17
2018-07-05T12:52:21.004Z,14.77
2018-07-05T12:54:55.090Z,19.50
2018-07-05T12:57:29.254Z,9.00
2018-07-05T13:00:03.212Z,11.03
2018-07-05T13:02:37.403Z,67.37
2018-07-05T13:05:11.771Z,39.10
2018-07-05T13:07:45.981Z,50.33
2018-07-05T13:10:20.094Z,32.93
2018-07-05T13:12:54.586Z,20.83
2018-07-05T13:15:28.551Z,13.47
2018-07-05T13:18:02.607Z,10.77
2018-07-05T13:20:36.644Z,9.70
2018-07-05T13:23:10.653Z,9.17
2018-07-05T13:25:44.648Z,7.40
2018-07-05T13:28:18.675Z,7.70
2018-07-05T13:30:52.851Z,16.50
2018-07-05T13:33:26.927Z,7.50
2018-07-05T13:36:01.030Z,7.50
2018-07-05T13:38:35.116Z,6.00
2018-07-05T13:41:09.357Z,6.23
2018-07-05T13:43:43.507Z,8.03
2018-07-05T13:46:17.678Z,10.70
2018-07-05T13:48:51.743Z,9.23
2018-07-05T13:51:25.856Z,7.13
2018-07-05T13:54:00.196Z,7.83
2018-07-05T13:56:34.169Z,5.57
2018-07-05T13:59:08.320Z,9.07
2018-07-05T14:01:42.380Z,8.40
2018-07-05T14:04:16.475Z,6.47
2018-07-05T14:06:50.639Z,9.97
2018-07-05T14:09:24.998Z,9.23
2018-07-05T14:11:59.366Z,6.37
2018-07-05T14:14:33.562Z,7.67
2018-07-05T14:17:07.643Z,6.33
2018-07-05T14:19:41.965Z,6.60
2018-07-05T14:22:16.265Z,5.50
2018-07-05T14:24:50.378Z,4.97
2018-07-05T14:27:24.396Z,7.90
2018-07-05T14:29:58.514Z,7.83
2018-07-05T14:32:32.547Z,8.37
2018-07-05T14:35:06.570Z,5.30
2018-07-05T14:37:40.520Z,7.00
2018-07-05T14:40:14.737Z,5.87
2018-07-05T14:42:48.898Z,5.47
2018-07-05T14:45:23.011Z,7.30
2018-07-05T14:47:56.918Z,5.60
2018-07-05T14:50:31.068Z,9.00
2018-07-05T14:53:05.106Z,6.17
2018-07-05T14:55:39.439Z,8.03
2018-07-05T14:58:13.585Z,5.50
2018-07-05T15:00:47.803Z,5.00
2018-07-05T15:03:22.046Z,7.57
2018-07-05T15:05:56.020Z,24.27
2018-07-05T15:08:30.068Z,43.27
2018-07-05T15:11:04.241Z,34.13
2018-07-05T15:13:38.330Z,39.80
2018-07-05T15:16:12.464Z,21.20
2018-07-05T15:18:46.721Z,66.37
2018-07-05T15:21:20.894Z,38.50
2018-07-05T15:23:55.073Z,31.10
2018-07-05T15:26:29.470Z,32.03
2018-07-05T15:29:03.668Z,17.77
2018-07-05T15:31:37.766Z,16.83
2018-07-05T15:34:12.029Z,9.63
2018-07-05T15:36:46.159Z,11.20
2018-07-05T15:39:20.048Z,12.80
2018-07-05T15:41:53.967Z,8.53
2018-07-05T15:44:28.092Z,7.35
2018-07-05T15:47:02.237Z,5.07
2018-07-05T15:49:36.628Z,5.20
2018-07-05T15:52:17.817Z,6.20
2018-07-05T15:54:58.044Z,5.93
2018-07-05T15:57:38.412Z,7.17
2018-07-05T16:00:18.692Z,12.80
2018-07-05T16:02:59.022Z,9.63
2018-07-05T16:05:39.382Z,10.57
2018-07-05T16:08:19.829Z,6.13
2018-07-05T16:11:00.153Z,5.83
2018-07-05T16:13:40.846Z,7.83
2018-07-05T16:16:21.112Z,6.70
2018-07-05T16:19:01.676Z,6.67
2018-07-05T16:21:41.892Z,10.60
2018-07-05T16:24:22.131Z,5.80
2018-07-05T16:27:02.334Z,5.87
2018-07-05T16:29:42.752Z,5.20
2018-07-05T16:32:22.827Z,6.03
2018-07-05T16:35:03.491Z,6.03
2018-07-05T16:37:43.566Z,7.73
2018-07-05T16:40:23.931Z,7.57
2018-07-05T16:43:04.433Z,8.53
2018-07-05T16:45:44.762Z,5.93
2018-07-05T16:48:25.025Z,6.87
2018-07-05T16:51:06.016Z,6.33
2018-07-05T16:53:46.073Z,5.70
2018-07-05T16:56:26.298Z,5.93
2018-07-05T16:59:06.482Z,7.00
2018-07-05T17:01:46.752Z,6.93
2018-07-05T17:04:26.923Z,7.27
2018-07-05T17:07:07.014Z,6.63
2018-07-05T17:09:47.150Z,9.30
2018-07-05T17:12:28.371Z,5.50
2018-07-05T17:15:08.555Z,7.00
2018-07-05T17:17:48.857Z,5.67
2018-07-05T17:20:29.167Z,6.67
2018-07-05T17:23:09.509Z,4.57
2018-07-05T17:25:49.942Z,5.70
2018-07-05T17:28:30.128Z,7.07
2018-07-05T17:31:10.332Z,4.43
2018-07-05T17:33:50.797Z,6.13
2018-07-05T17:36:31.002Z,5.87
2018-07-05T17:39:11.985Z,5.00
2018-07-05T17:41:52.376Z,6.03
2018-07-05T17:44:32.670Z,8.00
2018-07-05T17:47:13.309Z,4.53
2018-07-05T17:49:53.581Z,5.97
2018-07-05T17:52:33.824Z,6.90
2018-07-05T17:55:13.930Z,5.10
2018-07-05T17:57:54.144Z,6.57
2018-07-05T18:00:34.554Z,6.10
2018-07-05T18:03:14.734Z,5.50
2018-07-05T18:05:55.178Z,4.83
2018-07-05T18:08:35.417Z,6.40
2018-07-05T18:11:15.861Z,7.83
2018-07-05T18:13:55.974Z,7.20
2018-07-05T18:16:36.366Z,11.17
2018-07-05T18:19:16.490Z,13.43
2018-07-05T18:21:57.017Z,9.20
2018-07-05T18:24:37.860Z,7.23
2018-07-05T18:27:17.980Z,6.33
2018-07-05T18:29:58.550Z,5.10
2018-07-05T18:32:38.993Z,4.73
2018-07-05T18:35:19.316Z,4.67
2018-07-05T18:37:59.422Z,4.10
2018-07-05T18:40:39.745Z,5.53
2018-07-05T18:43:20.017Z,4.40
2018-07-05T18:46:00.195Z,5.57
2018-07-05T18:48:40.440Z,6.00
2018-07-05T18:51:20.590Z,5.53
2018-07-05T18:54:00.983Z,5.50
2018-07-05T18:56:41.227Z,5.47
2018-07-05T18:59:21.798Z,6.60
2018-07-05T19:02:02.310Z,6.17
2018-07-05T19:04:42.599Z,6.63
2018-07-05T19:07:22.820Z,4.70
2018-07-05T19:10:02.956Z,5.07
2018-07-05T19:12:43.133Z,7.07
2018-07-05T19:15:23.421Z,6.40
2018-07-05T19:18:03.933Z,6.20
2018-07-05T19:20:44.101Z,5.47
2018-07-05T19:23:24.431Z,3.63
2018-07-05T19:26:04.603Z,5.07
2018-07-05T19:28:44.843Z,6.03
2018-07-05T19:31:25.083Z,8.63
2018-07-05T19:34:05.394Z,13.13
2018-07-05T19:36:45.609Z,15.47
2018-07-05T19:39:25.933Z,18.90
2018-07-05T19:42:06.240Z,26.17
2018-07-05T19:44:46.571Z,11.73
2018-07-05T19:47:26.957Z,11.77
2018-07-05T19:50:07.497Z,11.63
2018-07-05T19:52:47.761Z,12.27
2018-07-05T19:55:28.109Z,10.90
2018-07-05T19:58:08.424Z,11.77
2018-07-05T20:00:48.618Z,11.43
2018-07-05T20:03:28.929Z,10.07
2018-07-05T20:06:09.003Z,10.90
2018-07-05T20:08:49.403Z,11.33
2018-07-05T20:11:29.649Z,13.63
2018-07-05T20:14:09.764Z,14.13
2018-07-05T20:16:50.247Z,16.63
2018-07-05T20:19:30.981Z,16.43
2018-07-05T20:22:16.801Z,21.23
2018-07-05T20:24:57.133Z,12.97
2018-07-05T20:27:37.633Z,15.40
2018-07-05T20:30:18.081Z,14.33
2018-07-05T20:32:58.393Z,32.77
2018-07-05T20:35:38.715Z,12.73
2018-07-05T20:38:18.821Z,9.83
2018-07-05T20:40:59.270Z,12.03
2018-07-05T20:43:39.804Z,13.30
2018-07-05T20:46:20.144Z,11.57
2018-07-05T20:49:00.545Z,9.13
2018-07-05T20:51:40.829Z,7.23
2018-07-05T20:54:21.169Z,8.77
2018-07-05T20:57:01.583Z,6.83
2018-07-05T20:59:42.784Z,6.10
2018-07-05T21:02:23.995Z,11.57
2018-07-05T21:05:04.579Z,6.03
2018-07-05T21:07:46.245Z,7.17
2018-07-05T21:10:26.688Z,6.00
2018-07-05T21:13:07.443Z,10.87
2018-07-05T21:15:47.601Z,4.87
2018-07-05T21:18:27.601Z,9.17
2018-07-05T21:21:08.514Z,5.37
2018-07-05T21:23:48.497Z,10.13
2018-07-05T21:26:29.176Z,9.50
2018-07-05T21:29:09.428Z,14.57
2018-07-05T21:31:49.816Z,10.90
2018-07-05T21:34:30.384Z,6.00
2018-07-05T21:37:04.966Z,9.77
2018-07-05T21:39:44.948Z,34.97
2018-07-05T21:42:25.362Z,14.87
2018-07-05T21:45:05.484Z,8.13
2018-07-05T21:47:45.699Z,10.33
2018-07-05T21:50:26.786Z,9.20
2018-07-05T21:53:07.229Z,10.10
2018-07-05T21:55:47.690Z,26.13
2018-07-05T21:58:28.415Z,25.70
2018-07-05T22:01:08.816Z,17.43
2018-07-05T22:03:48.850Z,32.00
2018-07-05T22:06:29.056Z,18.90
2018-07-05T22:09:09.443Z,12.00
2018-07-05T22:11:49.700Z,11.80
2018-07-05T22:14:30.308Z,12.43
2018-07-05T22:17:15.962Z,8.20
2018-07-05T22:20:01.744Z,14.03
2018-07-05T22:22:47.633Z,13.23
2018-07-05T22:25:33.824Z,6.70
2018-07-05T22:28:19.621Z,7.17
2018-07-05T22:31:05.442Z,7.00
2018-07-05T22:33:45.794Z,6.67
2018-07-05T22:36:25.916Z,6.20
2018-07-05T22:39:06.608Z,6.50
2018-07-05T22:41:46.940Z,6.63
2018-07-05T22:44:27.308Z,9.73
2018-07-05T22:47:07.740Z,5.72
2018-07-05T22:49:48.028Z,6.00
2018-07-05T22:52:28.197Z,6.17
2018-07-05T22:55:08.452Z,6.90
2018-07-05T22:57:48.640Z,6.27
2018-07-05T23:00:28.946Z,66.10
2018-07-05T23:03:09.062Z,37.37
2018-07-05T23:05:49.270Z,35.40
2018-07-05T23:08:29.800Z,45.13
2018-07-05T23:11:10.159Z,17.70
2018-07-05T23:13:51.029Z,20.73
2018-07-05T23:16:31.089Z,24.73
2018-07-05T23:19:11.560Z,14.23
2018-07-05T23:21:52.183Z,10.90
2018-07-05T23:24:33.139Z,12.70
2018-07-05T23:27:13.702Z,10.07
2018-07-05T23:29:53.878Z,10.67
2018-07-05T23:32:34.030Z,14.80
2018-07-05T23:35:15.032Z,15.53
2018-07-05T23:37:55.256Z,16.07
2018-07-05T23:40:35.396Z,17.27
2018-07-05T23:43:15.591Z,16.47
2018-07-05T23:45:55.856Z,19.03
2018-07-05T23:48:36.120Z,21.37
2018-07-05T23:51:16.505Z,19.03
2018-07-05T23:53:56.856Z,15.37
2018-07-05T23:56:37.215Z,14.33
2018-07-05T23:59:17.541Z,18.13
